createdAt,value
2023-07-19T00:00:28.133Z,27.24
2023-07-19T00:02:56.080Z,27.18
2023-07-19T00:05:24.081Z,27.16
2023-07-19T00:07:52.053Z,27.13
2023-07-19T00:10:20.158Z,27.15
2023-07-19T00:12:55.946Z,27.15
2023-07-19T00:15:25.925Z,27.13
2023-07-19T00:17:53.915Z,27.10
2023-07-19T00:20:22.017Z,27.09
2023-07-19T00:22:50.405Z,27.08
2023-07-19T00:25:18.778Z,27.02
2023-07-19T00:27:49.770Z,27.00
2023-07-19T00:30:18.846Z,26.99
2023-07-19T00:32:48.338Z,27.02
2023-07-19T00:35:16.513Z,27.04
2023-07-19T00:37:45.361Z,27.04
2023-07-19T00:40:14.076Z,27.08
2023-07-19T00:42:42.129Z,27.09
2023-07-19T00:45:11.577Z,27.12
2023-07-19T00:47:40.746Z,27.12
2023-07-19T00:50:11.277Z,27.12
2023-07-19T00:52:39.937Z,27.16
2023-07-19T00:55:09.334Z,27.16
2023-07-19T00:57:37.701Z,27.16
2023-07-19T01:00:07.749Z,27.15
2023-07-19T01:02:36.123Z,27.13
2023-07-19T01:05:04.348Z,27.11
2023-07-19T01:07:34.885Z,27.08
2023-07-19T01:10:02.950Z,27.07
2023-07-19T01:12:30.902Z,27.06
2023-07-19T01:14:58.852Z,27.03
2023-07-19T01:17:26.876Z,26.99
2023-07-19T01:19:54.921Z,26.92
2023-07-19T01:22:23.056Z,26.96
2023-07-19T01:24:52.422Z,27.00
2023-07-19T01:27:23.410Z,27.00
2023-07-19T01:29:52.035Z,27.02
2023-07-19T01:32:20.062Z,27.02
2023-07-19T01:34:48.222Z,26.98
2023-07-19T01:37:16.228Z,27.00
2023-07-19T01:39:44.996Z,27.03
2023-07-19T01:42:14.396Z,27.03
2023-07-19T01:44:42.353Z,26.94
2023-07-19T01:47:10.607Z,26.79
2023-07-19T01:49:40.941Z,26.70
2023-07-19T01:52:09.429Z,26.72
2023-07-19T01:54:37.438Z,26.77
2023-07-19T01:57:06.887Z,26.72
2023-07-19T01:59:36.276Z,26.72
2023-07-19T02:02:04.548Z,26.68
2023-07-19T02:04:32.932Z,26.55
2023-07-19T02:07:01.051Z,26.57
2023-07-19T02:09:30.319Z,26.58
2023-07-19T02:11:58.314Z,26.52
2023-07-19T02:14:26.340Z,26.51
2023-07-19T02:16:55.679Z,26.50
2023-07-19T02:19:23.688Z,26.52
2023-07-19T02:21:53.970Z,26.57
2023-07-19T02:24:22.001Z,26.55
2023-07-19T02:26:50.500Z,26.42
2023-07-19T02:29:18.441Z,26.45
2023-07-19T02:31:46.439Z,26.44
2023-07-19T02:34:19.925Z,26.43
2023-07-19T02:36:48.151Z,26.40
2023-07-19T02:39:16.166Z,26.36
2023-07-19T02:41:45.754Z,26.31
2023-07-19T02:44:13.806Z,26.33
2023-07-19T02:46:41.838Z,26.29
2023-07-19T02:49:09.889Z,26.28
2023-07-19T02:51:39.606Z,26.23
2023-07-19T02:54:07.606Z,26.20
2023-07-19T02:56:35.631Z,26.19
2023-07-19T02:59:04.535Z,26.19
2023-07-19T03:01:32.544Z,26.18
2023-07-19T03:04:00.997Z,26.16
2023-07-19T03:06:29.735Z,26.15
2023-07-19T03:08:59.174Z,26.17
2023-07-19T03:11:27.164Z,26.16
2023-07-19T03:13:55.094Z,26.04
2023-07-19T03:16:23.230Z,25.85
2023-07-19T03:18:51.424Z,25.64
2023-07-19T03:21:21.695Z,25.65
2023-07-19T03:23:50.013Z,25.76
2023-07-19T03:26:19.366Z,25.85
2023-07-19T03:28:47.764Z,25.77
2023-07-19T03:31:16.341Z,25.75
2023-07-19T03:33:44.424Z,25.77
2023-07-19T03:36:12.362Z,25.63
2023-07-19T03:38:40.376Z,25.64
2023-07-19T03:41:10.251Z,25.70
2023-07-19T03:43:39.739Z,25.74
2023-07-19T03:46:08.439Z,25.72
2023-07-19T03:48:38.979Z,25.70
2023-07-19T03:51:07.255Z,25.72
2023-07-19T03:53:36.203Z,25.73
2023-07-19T03:56:04.420Z,25.73
2023-07-19T03:58:32.782Z,25.62
2023-07-19T04:01:04.248Z,25.56
2023-07-19T04:03:32.631Z,25.48
2023-07-19T04:06:00.927Z,25.46
2023-07-19T04:08:29.180Z,25.39
2023-07-19T04:10:57.171Z,25.28
2023-07-19T04:13:27.152Z,25.26
2023-07-19T04:15:55.831Z,24.87
2023-07-19T04:18:26.273Z,24.79
2023-07-19T04:20:58.699Z,24.90
2023-07-19T04:23:28.789Z,24.78
2023-07-19T04:25:56.955Z,24.54
2023-07-19T04:28:25.479Z,24.47
2023-07-19T04:30:53.663Z,24.32
2023-07-19T04:33:22.072Z,24.49
2023-07-19T04:35:51.935Z,24.67
2023-07-19T04:38:20.056Z,24.82
2023-07-19T04:40:48.182Z,24.84
2023-07-19T04:43:16.282Z,24.86
2023-07-19T04:45:49.600Z,24.85
2023-07-19T04:48:18.566Z,24.85
2023-07-19T04:50:46.555Z,24.89
2023-07-19T04:53:15.975Z,24.94
2023-07-19T04:55:45.021Z,24.99
2023-07-19T04:58:15.620Z,25.00
2023-07-19T05:00:43.588Z,24.99
2023-07-19T05:03:11.949Z,25.00
2023-07-19T05:05:40.978Z,24.97
2023-07-19T05:08:09.366Z,24.90
2023-07-19T05:10:39.833Z,24.85
2023-07-19T05:13:08.185Z,24.83
2023-07-19T05:15:36.281Z,24.80
2023-07-19T05:18:08.935Z,24.82
2023-07-19T05:20:36.982Z,24.82
2023-07-19T05:23:05.042Z,24.84
2023-07-19T05:25:33.094Z,24.88
2023-07-19T05:28:02.483Z,24.92
2023-07-19T05:30:30.579Z,24.99
2023-07-19T05:32:58.589Z,25.00
2023-07-19T05:35:26.628Z,25.07
2023-07-19T05:37:54.545Z,25.11
2023-07-19T05:40:22.563Z,25.09
2023-07-19T05:42:50.583Z,25.11
2023-07-19T05:45:20.134Z,25.01
2023-07-19T05:47:48.141Z,24.86
2023-07-19T05:50:16.239Z,24.77
2023-07-19T05:52:44.220Z,24.72
2023-07-19T05:55:12.260Z,24.76
2023-07-19T05:57:40.566Z,24.93
2023-07-19T06:00:20.717Z,25.08
2023-07-19T06:02:55.052Z,25.07
2023-07-19T06:05:25.485Z,25.02
2023-07-19T06:07:54.252Z,25.02
2023-07-19T06:10:22.445Z,25.07
2023-07-19T06:12:51.288Z,25.23
2023-07-19T06:15:19.837Z,25.42
2023-07-19T06:17:47.912Z,25.56
2023-07-19T06:20:17.345Z,25.51
2023-07-19T06:22:45.365Z,25.60
2023-07-19T06:25:14.059Z,25.72
2023-07-19T06:27:42.132Z,25.82
2023-07-19T06:30:11.114Z,25.91
2023-07-19T06:32:39.168Z,25.87
2023-07-19T06:35:10.233Z,25.88
2023-07-19T06:37:39.627Z,25.94
2023-07-19T06:40:09.089Z,25.97
2023-07-19T06:42:37.864Z,25.90
2023-07-19T06:45:06.623Z,25.91
2023-07-19T06:47:34.674Z,25.83
2023-07-19T06:50:02.807Z,25.83
2023-07-19T06:52:30.941Z,25.75
2023-07-19T06:55:00.287Z,25.87
2023-07-19T06:57:28.479Z,25.83
2023-07-19T06:59:56.539Z,25.84
2023-07-19T07:02:24.633Z,25.85
2023-07-19T07:04:53.197Z,25.87
2023-07-19T07:07:21.168Z,25.97
2023-07-19T07:09:49.322Z,26.10
2023-07-19T07:12:18.764Z,26.13
2023-07-19T07:14:49.729Z,26.20
2023-07-19T07:17:19.138Z,26.22
2023-07-19T07:19:47.351Z,26.26
2023-07-19T07:22:15.416Z,26.26
2023-07-19T07:24:43.359Z,26.28
2023-07-19T07:27:11.375Z,26.26
2023-07-19T07:29:43.167Z,26.16
2023-07-19T07:32:12.985Z,26.13
2023-07-19T07:34:41.099Z,26.14
2023-07-19T07:37:09.902Z,26.36
2023-07-19T07:39:37.968Z,26.52
2023-07-19T07:42:06.811Z,26.56
2023-07-19T07:44:34.803Z,26.59
2023-07-19T07:47:04.264Z,26.67
2023-07-19T07:49:32.741Z,26.67
2023-07-19T07:52:00.769Z,26.47
2023-07-19T07:54:28.774Z,26.55
2023-07-19T07:56:56.907Z,26.62
2023-07-19T07:59:24.947Z,26.61
2023-07-19T08:01:52.925Z,26.60
2023-07-19T08:04:22.297Z,26.44
2023-07-19T08:06:50.312Z,26.18
2023-07-19T08:09:20.266Z,26.04
2023-07-19T08:11:49.977Z,26.01
2023-07-19T08:14:18.003Z,26.04
2023-07-19T08:16:46.005Z,25.99
2023-07-19T08:19:14.543Z,26.04
2023-07-19T08:21:44.247Z,26.08
2023-07-19T08:24:12.625Z,26.12
2023-07-19T08:26:41.117Z,26.11
2023-07-19T08:29:09.166Z,26.06
2023-07-19T08:31:37.562Z,26.13
2023-07-19T08:34:05.600Z,26.21
2023-07-19T08:36:33.628Z,26.20
2023-07-19T08:39:03.261Z,26.22
2023-07-19T08:41:34.003Z,26.23
2023-07-19T08:44:02.351Z,26.24
2023-07-19T08:46:30.387Z,26.32
2023-07-19T08:48:59.044Z,26.35
2023-07-19T08:51:27.828Z,26.47
2023-07-19T08:53:56.102Z,26.74
2023-07-19T08:56:25.774Z,26.91
2023-07-19T08:58:53.831Z,26.99
2023-07-19T09:01:22.519Z,27.10
2023-07-19T09:03:50.807Z,27.11
2023-07-19T09:06:25.406Z,26.89
2023-07-19T09:08:54.155Z,26.64
2023-07-19T09:11:23.274Z,26.53
2023-07-19T09:13:55.660Z,26.40
2023-07-19T09:16:29.030Z,26.50
2023-07-19T09:18:59.615Z,26.58
2023-07-19T09:21:35.221Z,26.89
2023-07-19T09:24:06.050Z,27.05
2023-07-19T09:26:49.470Z,27.15
2023-07-19T09:29:19.273Z,27.10
2023-07-19T09:31:57.478Z,27.18
2023-07-19T09:34:28.953Z,27.16
2023-07-19T09:36:57.418Z,27.27
2023-07-19T09:39:25.436Z,27.43
2023-07-19T09:41:54.130Z,27.58
2023-07-19T09:44:23.894Z,27.74
2023-07-19T09:46:52.225Z,27.80
2023-07-19T09:49:20.229Z,27.69
2023-07-19T09:51:49.909Z,27.68
2023-07-19T09:54:18.645Z,27.77
2023-07-19T09:56:46.776Z,27.93
2023-07-19T09:59:16.687Z,28.06
2023-07-19T10:01:46.362Z,27.97
2023-07-19T10:04:25.745Z,28.12
2023-07-19T10:07:05.005Z,28.30
2023-07-19T10:09:43.146Z,28.36
2023-07-19T10:12:25.654Z,28.38
2023-07-19T10:14:55.296Z,28.34
2023-07-19T10:17:25.810Z,28.41
2023-07-19T10:19:59.666Z,28.53
2023-07-19T10:22:54.032Z,28.49
2023-07-19T10:25:28.621Z,28.54
2023-07-19T10:28:05.434Z,28.61
2023-07-19T10:30:53.458Z,28.70
2023-07-19T10:33:24.265Z,28.66
2023-07-19T10:35:53.459Z,28.65
2023-07-19T10:38:24.037Z,28.53
2023-07-19T10:40:57.392Z,28.64
2023-07-19T10:43:44.956Z,28.62
2023-07-19T10:46:14.676Z,28.34
2023-07-19T10:48:44.414Z,28.16
2023-07-19T10:51:12.580Z,28.29
2023-07-19T10:53:46.124Z,28.56
2023-07-19T10:56:15.376Z,28.74
2023-07-19T10:58:43.999Z,28.85
2023-07-19T11:01:13.493Z,28.92
2023-07-19T11:03:44.090Z,28.88
2023-07-19T11:06:13.711Z,28.81
2023-07-19T11:08:42.181Z,28.78
2023-07-19T11:11:13.967Z,28.75
2023-07-19T11:13:42.076Z,28.76
2023-07-19T11:16:10.140Z,28.72
2023-07-19T11:18:39.619Z,28.83
2023-07-19T11:21:08.726Z,29.09
2023-07-19T11:23:42.595Z,29.26
2023-07-19T11:26:13.131Z,29.26
2023-07-19T11:28:45.545Z,29.05
2023-07-19T11:31:29.087Z,29.02
2023-07-19T11:34:02.682Z,29.07
2023-07-19T11:36:31.185Z,29.21
2023-07-19T11:39:00.577Z,29.37
2023-07-19T11:41:32.037Z,29.48
2023-07-19T11:44:00.110Z,29.62
2023-07-19T11:46:28.136Z,29.80
2023-07-19T11:48:56.143Z,29.72
2023-07-19T11:51:24.604Z,29.56
2023-07-19T11:53:52.787Z,29.25
2023-07-19T11:56:22.118Z,28.97
2023-07-19T11:58:50.461Z,28.85
2023-07-19T12:01:20.344Z,28.68
2023-07-19T12:03:48.679Z,28.45
2023-07-19T12:06:16.815Z,28.51
2023-07-19T12:08:45.407Z,28.57
2023-07-19T12:11:14.081Z,28.52
2023-07-19T12:13:43.376Z,28.44
2023-07-19T12:16:11.401Z,28.26
2023-07-19T12:18:40.197Z,28.06
2023-07-19T12:21:08.267Z,27.90
2023-07-19T12:23:40.634Z,27.87
2023-07-19T12:26:10.316Z,27.96
2023-07-19T12:28:38.661Z,28.06
2023-07-19T12:31:09.293Z,27.94
2023-07-19T12:33:37.323Z,27.92
2023-07-19T12:36:05.932Z,27.88
2023-07-19T12:38:35.084Z,27.86
2023-07-19T12:41:03.153Z,27.89
2023-07-19T12:43:31.109Z,27.84
2023-07-19T12:45:59.433Z,27.80
2023-07-19T12:48:28.727Z,27.81
2023-07-19T12:50:56.909Z,28.04
2023-07-19T12:53:25.502Z,28.19
2023-07-19T12:55:54.970Z,28.58
2023-07-19T12:58:24.202Z,28.82
2023-07-19T13:00:52.436Z,28.68
2023-07-19T13:03:21.700Z,28.58
2023-07-19T13:05:51.338Z,28.61
2023-07-19T13:08:19.436Z,28.61
2023-07-19T13:10:47.428Z,28.76
2023-07-19T13:13:16.951Z,28.84
2023-07-19T13:15:45.085Z,28.72
2023-07-19T13:18:13.047Z,28.58
2023-07-19T13:20:41.080Z,28.41
2023-07-19T13:23:11.933Z,28.42
2023-07-19T13:25:40.407Z,28.60
2023-07-19T13:28:08.793Z,28.67
2023-07-19T13:30:38.859Z,28.67
2023-07-19T13:33:07.111Z,28.56
2023-07-19T13:38:07.397Z,28.68
2023-07-19T13:40:36.984Z,28.61
2023-07-19T13:43:05.004Z,28.63
2023-07-19T13:45:35.181Z,28.79
2023-07-19T13:48:03.340Z,28.98
2023-07-19T13:50:31.319Z,28.93
2023-07-19T13:53:01.284Z,28.78
2023-07-19T13:55:29.348Z,28.96
2023-07-19T13:57:58.735Z,29.15
2023-07-19T14:00:26.764Z,29.17
2023-07-19T14:02:55.053Z,29.16
2023-07-19T14:05:23.994Z,29.04
2023-07-19T14:07:54.726Z,29.18
2023-07-19T14:10:22.861Z,29.48
2023-07-19T14:12:59.419Z,29.58
2023-07-19T14:15:29.653Z,29.80
2023-07-19T14:17:57.615Z,29.92
2023-07-19T14:20:26.932Z,29.93
2023-07-19T14:22:55.353Z,30.09
2023-07-19T14:25:23.570Z,30.07
2023-07-19T14:27:51.567Z,30.25
2023-07-19T14:30:20.268Z,30.39
2023-07-19T14:32:49.639Z,30.56
2023-07-19T14:35:17.678Z,30.52
2023-07-19T14:37:45.825Z,30.41
2023-07-19T14:40:15.424Z,30.37
2023-07-19T14:42:44.703Z,30.48
2023-07-19T14:45:12.681Z,30.45
2023-07-19T14:47:40.660Z,30.54
2023-07-19T14:50:11.182Z,30.69
2023-07-19T14:52:42.685Z,30.70
2023-07-19T14:55:11.197Z,30.57
2023-07-19T14:57:39.165Z,30.77
2023-07-19T15:00:13.309Z,30.78
2023-07-19T15:02:42.466Z,30.77
2023-07-19T15:05:12.464Z,30.56
2023-07-19T15:07:44.666Z,30.20
2023-07-19T15:10:13.227Z,30.28
2023-07-19T15:12:43.952Z,30.47
2023-07-19T15:15:13.155Z,30.61
2023-07-19T15:17:42.493Z,30.75
2023-07-19T15:20:12.980Z,30.74
2023-07-19T15:22:42.147Z,30.90
2023-07-19T15:25:10.727Z,31.16
2023-07-19T15:27:38.869Z,31.46
2023-07-19T15:30:08.491Z,31.65
2023-07-19T15:32:36.585Z,31.79
2023-07-19T15:35:04.910Z,31.99
2023-07-19T15:37:34.231Z,31.85
2023-07-19T15:40:02.276Z,31.50
2023-07-19T15:42:30.504Z,30.93
2023-07-19T15:44:58.502Z,30.75
2023-07-19T15:47:26.931Z,30.78
2023-07-19T15:49:54.912Z,30.62
2023-07-19T15:52:22.884Z,30.78
2023-07-19T15:54:52.347Z,30.72
2023-07-19T15:57:20.373Z,30.61
2023-07-19T15:59:48.335Z,30.28
2023-07-19T16:02:17.995Z,29.84
2023-07-19T16:04:46.046Z,29.91
2023-07-19T16:07:14.675Z,29.93
2023-07-19T16:09:42.770Z,30.05
2023-07-19T16:12:12.547Z,30.27
2023-07-19T16:14:40.507Z,30.19
2023-07-19T16:17:08.428Z,30.16
2023-07-19T16:19:36.356Z,29.96
2023-07-19T16:22:04.317Z,29.65
2023-07-19T16:24:32.378Z,29.72
2023-07-19T16:27:00.376Z,29.90
2023-07-19T16:29:29.752Z,29.72
2023-07-19T16:31:57.793Z,29.74
2023-07-19T16:34:25.743Z,30.09
2023-07-19T16:36:53.713Z,30.26
2023-07-19T16:39:21.854Z,30.17
2023-07-19T16:41:49.918Z,30.10
2023-07-19T16:44:18.268Z,30.14
2023-07-19T16:46:47.616Z,30.10
2023-07-19T16:49:15.689Z,29.72
2023-07-19T16:51:43.675Z,29.86
2023-07-19T16:54:11.615Z,29.98
2023-07-19T16:56:39.558Z,30.02
2023-07-19T16:59:07.487Z,30.09
2023-07-19T17:01:35.606Z,30.06
2023-07-19T17:04:05.493Z,29.91
2023-07-19T17:06:33.449Z,29.87
2023-07-19T17:09:01.433Z,29.68
2023-07-19T17:11:29.450Z,29.79
2023-07-19T17:13:57.410Z,29.66
2023-07-19T17:16:25.434Z,29.65
2023-07-19T17:19:05.819Z,29.79
2023-07-19T17:21:45.574Z,30.08
2023-07-19T17:24:13.972Z,30.08
2023-07-19T17:26:42.013Z,30.20
2023-07-19T17:29:10.000Z,29.94
2023-07-19T17:31:38.132Z,29.92
2023-07-19T17:34:06.179Z,29.91
2023-07-19T17:36:34.204Z,29.81
2023-07-19T17:39:03.562Z,29.71
2023-07-19T17:41:31.750Z,29.84
2023-07-19T17:44:00.478Z,29.61
2023-07-19T17:46:28.521Z,29.85
2023-07-19T17:48:56.442Z,29.69
2023-07-19T17:51:24.584Z,29.83
2023-07-19T17:53:52.706Z,29.97
2023-07-19T17:56:22.068Z,30.04
2023-07-19T17:58:51.291Z,30.21
2023-07-19T18:01:21.227Z,30.10
2023-07-19T18:03:50.625Z,30.20
2023-07-19T18:06:19.176Z,30.38
2023-07-19T18:08:47.252Z,30.66
2023-07-19T18:11:15.398Z,30.78
2023-07-19T18:13:44.776Z,30.91
2023-07-19T18:16:12.768Z,30.89
2023-07-19T18:18:40.725Z,30.90
2023-07-19T18:21:08.714Z,30.79
2023-07-19T18:23:38.380Z,30.79
2023-07-19T18:26:07.970Z,30.53
2023-07-19T18:28:37.416Z,30.23
2023-07-19T18:31:06.862Z,30.33
2023-07-19T18:33:34.961Z,30.30
2023-07-19T18:36:02.969Z,30.38
2023-07-19T18:38:30.964Z,30.27
2023-07-19T18:40:59.316Z,30.23
2023-07-19T18:43:27.667Z,30.41
2023-07-19T18:45:55.704Z,30.92
2023-07-19T18:48:25.276Z,31.38
2023-07-19T18:50:53.280Z,31.59
2023-07-19T18:53:23.122Z,31.70
2023-07-19T18:55:51.328Z,30.92
2023-07-19T18:58:19.825Z,30.00
2023-07-19T19:00:49.262Z,29.28
2023-07-19T19:03:17.537Z,28.49
2023-07-19T19:05:47.714Z,28.15
2023-07-19T19:08:17.355Z,27.94
2023-07-19T19:10:45.402Z,27.85
2023-07-19T19:13:13.638Z,27.82
2023-07-19T19:15:41.641Z,27.75
2023-07-19T19:18:09.851Z,27.71
2023-07-19T19:20:37.913Z,27.66
2023-07-19T19:23:08.064Z,27.32
2023-07-19T19:25:36.311Z,27.28
2023-07-19T19:28:04.598Z,27.14
2023-07-19T19:30:32.690Z,27.19
2023-07-19T19:33:00.802Z,27.15
2023-07-19T19:35:29.344Z,27.06
2023-07-19T19:37:57.323Z,26.91
2023-07-19T19:40:27.409Z,26.98
2023-07-19T19:42:55.407Z,26.95
2023-07-19T19:45:23.386Z,26.90
2023-07-19T19:47:51.384Z,26.91
2023-07-19T19:50:19.354Z,26.80
2023-07-19T19:52:59.085Z,26.72
2023-07-19T19:58:03.897Z,26.50
2023-07-19T20:00:31.852Z,26.30
2023-07-19T20:08:01.710Z,26.08
2023-07-19T20:10:29.891Z,25.98
2023-07-19T20:12:59.665Z,25.88
2023-07-19T20:15:27.833Z,25.83
2023-07-19T20:18:19.423Z,25.92
2023-07-19T20:20:43.830Z,25.77
2023-07-19T20:23:13.370Z,25.60
2023-07-19T20:25:47.865Z,25.62
2023-07-19T20:28:30.830Z,25.87
2023-07-19T20:31:05.852Z,26.02
2023-07-19T20:33:34.955Z,26.13
2023-07-19T20:36:05.865Z,26.19
2023-07-19T20:43:37.482Z,25.87
2023-07-19T20:46:07.609Z,25.75
2023-07-19T20:48:38.349Z,25.40
2023-07-19T20:51:10.903Z,25.23
2023-07-19T20:53:39.346Z,25.34
2023-07-19T20:56:07.930Z,25.46
2023-07-19T20:58:37.395Z,25.52
2023-07-19T21:01:05.811Z,25.49
2023-07-19T21:03:34.338Z,25.46
2023-07-19T21:06:03.441Z,25.35
2023-07-19T21:08:31.479Z,25.20
2023-07-19T21:10:59.474Z,25.09
2023-07-19T21:13:27.704Z,25.07
2023-07-19T21:15:57.124Z,25.10
2023-07-19T21:18:25.131Z,25.17
2023-07-19T21:20:53.082Z,25.20
2023-07-19T21:23:21.118Z,24.99
2023-07-19T21:25:49.470Z,24.92
2023-07-19T21:28:17.662Z,24.82
2023-07-19T21:30:45.677Z,24.72
2023-07-19T21:33:15.434Z,24.73
2023-07-19T21:35:43.448Z,24.74
2023-07-19T21:38:11.485Z,24.75
2023-07-19T21:40:39.614Z,24.77
2023-07-19T21:43:08.237Z,24.76
2023-07-19T21:45:36.772Z,24.76
2023-07-19T21:48:06.000Z,24.74
2023-07-19T21:50:35.523Z,24.70
2023-07-19T21:53:03.631Z,24.65
2023-07-19T21:55:31.801Z,24.63
2023-07-19T21:58:00.160Z,24.62
2023-07-19T22:00:41.596Z,24.58
2023-07-19T22:03:12.022Z,24.50
2023-07-19T22:05:42.055Z,24.42
2023-07-19T22:08:10.172Z,24.41
2023-07-19T22:10:38.490Z,24.37
2023-07-19T22:13:08.363Z,24.39
2023-07-19T22:15:36.874Z,24.38
2023-07-19T22:18:18.544Z,24.40
2023-07-19T22:20:50.111Z,24.35
2023-07-19T22:23:19.245Z,24.33
2023-07-19T22:25:49.423Z,24.28
2023-07-19T22:28:30.216Z,24.25
2023-07-19T22:30:58.495Z,24.22
2023-07-19T22:33:26.490Z,24.23
2023-07-19T22:35:55.875Z,24.21
2023-07-19T22:38:23.989Z,24.17
2023-07-19T22:40:51.966Z,24.13
2023-07-19T22:43:19.902Z,24.08
2023-07-19T22:45:47.881Z,24.04
2023-07-19T22:48:15.889Z,24.03
2023-07-19T22:50:43.848Z,24.05
2023-07-19T22:53:14.097Z,24.07
2023-07-19T22:55:42.109Z,24.03
2023-07-19T22:58:10.226Z,23.99
2023-07-19T23:00:38.215Z,23.94
2023-07-19T23:03:06.340Z,23.89
2023-07-19T23:05:37.330Z,23.87
2023-07-19T23:08:05.848Z,23.78
2023-07-19T23:10:35.329Z,23.80
2023-07-19T23:13:03.299Z,23.21
2023-07-19T23:15:31.351Z,22.71
2023-07-19T23:18:00.151Z,22.94
2023-07-19T23:20:28.225Z,23.17
2023-07-19T23:22:57.176Z,23.30
2023-07-19T23:25:25.285Z,23.36
2023-07-19T23:27:55.189Z,23.42
2023-07-19T23:30:23.381Z,23.45
2023-07-19T23:32:52.014Z,23.44
2023-07-19T23:35:20.254Z,23.38
2023-07-19T23:37:48.212Z,23.36
2023-07-19T23:40:16.327Z,23.37
2023-07-19T23:42:44.420Z,23.36
2023-07-19T23:45:13.784Z,23.34
2023-07-19T23:47:41.915Z,23.31
2023-07-19T23:50:10.418Z,23.30
2023-07-19T23:52:38.422Z,23.33
2023-07-19T23:55:07.649Z,23.29
2023-07-19T23:57:35.709Z,23.28
